sensor_id;sensor_type;location;lat;lon;timestamp;P1;durP1;ratioP1;P2;durP2;ratioP2
35324;SDS011;35135;47.510;19.036;2024-02-04T00:00:27;3.47;;;1.80;;
35324;SDS011;35135;47.510;19.036;2024-02-04T00:02:53;2.63;;;1.67;;
35324;SDS011;35135;47.510;19.036;2024-02-04T00:05:19;2.67;;;1.60;;
35324;SDS011;35135;47.510;19.036;2024-02-04T00:07:45;2.72;;;1.63;;
35324;SDS011;35135;47.510;19.036;2024-02-04T00:10:10;3.00;;;1.60;;
35324;SDS011;35135;47.510;19.036;2024-02-04T00:12:36;2.30;;;1.50;;
35324;SDS011;35135;47.510;19.036;2024-02-04T00:15:04;3.45;;;1.92;;
35324;SDS011;35135;47.510;19.036;2024-02-04T00:17:30;2.75;;;1.50;;
35324;SDS011;35135;47.510;19.036;2024-02-04T00:19:58;2.67;;;1.30;;
35324;SDS011;35135;47.510;19.036;2024-02-04T00:22:24;2.28;;;1.58;;
35324;SDS011;35135;47.510;19.036;2024-02-04T00:24:50;2.28;;;1.30;;
35324;SDS011;35135;47.510;19.036;2024-02-04T00:27:16;2.55;;;1.27;;
35324;SDS011;35135;47.510;19.036;2024-02-04T00:29:41;2.38;;;1.30;;
35324;SDS011;35135;47.510;19.036;2024-02-04T00:32:07;2.55;;;1.30;;
35324;SDS011;35135;47.510;19.036;2024-02-04T00:34:33;1.85;;;1.30;;
35324;SDS011;35135;47.510;19.036;2024-02-04T00:36:59;1.90;;;1.10;;
35324;SDS011;35135;47.510;19.036;2024-02-04T00:39:25;1.63;;;1.20;;
35324;SDS011;35135;47.510;19.036;2024-02-04T00:41:51;2.50;;;1.05;;
35324;SDS011;35135;47.510;19.036;2024-02-04T00:44:16;2.08;;;1.30;;
35324;SDS011;35135;47.510;19.036;2024-02-04T00:46:43;2.42;;;1.35;;
35324;SDS011;35135;47.510;19.036;2024-02-04T00:49:09;1.83;;;1.30;;
35324;SDS011;35135;47.510;19.036;2024-02-04T00:51:34;1.85;;;1.05;;
35324;SDS011;35135;47.510;19.036;2024-02-04T00:54:00;2.10;;;1.25;;
35324;SDS011;35135;47.510;19.036;2024-02-04T00:56:26;1.45;;;1.20;;
35324;SDS011;35135;47.510;19.036;2024-02-04T00:58:52;1.77;;;1.02;;
35324;SDS011;35135;47.510;19.036;2024-02-04T01:01:17;2.25;;;1.45;;
35324;SDS011;35135;47.510;19.036;2024-02-04T01:03:44;2.58;;;1.23;;
35324;SDS011;35135;47.510;19.036;2024-02-04T01:06:11;2.20;;;1.27;;
35324;SDS011;35135;47.510;19.036;2024-02-04T01:08:36;1.50;;;1.00;;
35324;SDS011;35135;47.510;19.036;2024-02-04T01:11:03;1.73;;;1.00;;
35324;SDS011;35135;47.510;19.036;2024-02-04T01:13:32;0.90;;;0.80;;
35324;SDS011;35135;47.510;19.036;2024-02-04T01:15:57;1.52;;;1.05;;
35324;SDS011;35135;47.510;19.036;2024-02-04T01:18:23;1.95;;;1.08;;
35324;SDS011;35135;47.510;19.036;2024-02-04T01:20:49;1.63;;;1.20;;
35324;SDS011;35135;47.510;19.036;2024-02-04T01:23:15;2.00;;;1.20;;
35324;SDS011;35135;47.510;19.036;2024-02-04T01:25:42;1.15;;;0.90;;
35324;SDS011;35135;47.510;19.036;2024-02-04T01:28:08;2.25;;;1.05;;
35324;SDS011;35135;47.510;19.036;2024-02-04T01:30:34;1.98;;;1.08;;
35324;SDS011;35135;47.510;19.036;2024-02-04T01:33:00;1.38;;;1.00;;
35324;SDS011;35135;47.510;19.036;2024-02-04T01:35:26;1.33;;;0.90;;
35324;SDS011;35135;47.510;19.036;2024-02-04T01:37:51;2.55;;;0.80;;
35324;SDS011;35135;47.510;19.036;2024-02-04T01:40:17;1.50;;;0.90;;
35324;SDS011;35135;47.510;19.036;2024-02-04T01:42:43;1.80;;;0.80;;
35324;SDS011;35135;47.510;19.036;2024-02-04T01:45:08;1.83;;;1.00;;
35324;SDS011;35135;47.510;19.036;2024-02-04T01:47:34;1.67;;;1.13;;
35324;SDS011;35135;47.510;19.036;2024-02-04T01:50:00;1.40;;;0.70;;
35324;SDS011;35135;47.510;19.036;2024-02-04T01:52:28;1.10;;;0.85;;
35324;SDS011;35135;47.510;19.036;2024-02-04T01:54:55;1.17;;;0.80;;
35324;SDS011;35135;47.510;19.036;2024-02-04T01:57:21;1.20;;;0.90;;
35324;SDS011;35135;47.510;19.036;2024-02-04T01:59:48;1.30;;;0.90;;
35324;SDS011;35135;47.510;19.036;2024-02-04T02:02:16;1.52;;;1.08;;
35324;SDS011;35135;47.510;19.036;2024-02-04T02:04:43;1.20;;;0.90;;
35324;SDS011;35135;47.510;19.036;2024-02-04T02:07:09;1.35;;;0.88;;
35324;SDS011;35135;47.510;19.036;2024-02-04T02:09:35;1.40;;;0.75;;
35324;SDS011;35135;47.510;19.036;2024-02-04T02:12:07;1.60;;;0.90;;
35324;SDS011;35135;47.510;19.036;2024-02-04T02:14:39;1.02;;;0.70;;
35324;SDS011;35135;47.510;19.036;2024-02-04T02:17:12;1.17;;;0.77;;
35324;SDS011;35135;47.510;19.036;2024-02-04T02:19:59;1.27;;;0.80;;
35324;SDS011;35135;47.510;19.036;2024-02-04T02:22:43;2.15;;;0.60;;
35324;SDS011;35135;47.510;19.036;2024-02-04T02:25:13;1.00;;;0.80;;
35324;SDS011;35135;47.510;19.036;2024-02-04T02:27:46;0.77;;;0.73;;
35324;SDS011;35135;47.510;19.036;2024-02-04T02:30:15;1.88;;;0.90;;
35324;SDS011;35135;47.510;19.036;2024-02-04T02:32:42;1.55;;;0.80;;
35324;SDS011;35135;47.510;19.036;2024-02-04T02:35:14;0.90;;;0.70;;
35324;SDS011;35135;47.510;19.036;2024-02-04T02:37:50;1.05;;;0.85;;
35324;SDS011;35135;47.510;19.036;2024-02-04T02:40:26;1.23;;;0.80;;
35324;SDS011;35135;47.510;19.036;2024-02-04T02:43:14;1.00;;;0.80;;
35324;SDS011;35135;47.510;19.036;2024-02-04T02:45:41;0.77;;;0.65;;
35324;SDS011;35135;47.510;19.036;2024-02-04T02:48:08;1.20;;;0.80;;
35324;SDS011;35135;47.510;19.036;2024-02-04T02:50:35;1.40;;;0.80;;
35324;SDS011;35135;47.510;19.036;2024-02-04T02:53:01;0.93;;;0.70;;
35324;SDS011;35135;47.510;19.036;2024-02-04T02:55:27;0.95;;;0.70;;
35324;SDS011;35135;47.510;19.036;2024-02-04T02:57:53;0.93;;;0.57;;
35324;SDS011;35135;47.510;19.036;2024-02-04T03:00:18;1.08;;;0.70;;
35324;SDS011;35135;47.510;19.036;2024-02-04T03:02:44;0.77;;;0.70;;
35324;SDS011;35135;47.510;19.036;2024-02-04T03:05:12;0.88;;;0.60;;
35324;SDS011;35135;47.510;19.036;2024-02-04T03:07:38;0.80;;;0.70;;
35324;SDS011;35135;47.510;19.036;2024-02-04T03:10:04;0.93;;;0.63;;
35324;SDS011;35135;47.510;19.036;2024-02-04T03:12:30;0.88;;;0.60;;
35324;SDS011;35135;47.510;19.036;2024-02-04T03:14:55;0.70;;;0.50;;
35324;SDS011;35135;47.510;19.036;2024-02-04T03:17:21;0.70;;;0.50;;
35324;SDS011;35135;47.510;19.036;2024-02-04T03:19:47;0.80;;;0.60;;
35324;SDS011;35135;47.510;19.036;2024-02-04T03:22:14;1.00;;;0.50;;
35324;SDS011;35135;47.510;19.036;2024-02-04T03:24:40;0.88;;;0.57;;
35324;SDS011;35135;47.510;19.036;2024-02-04T03:27:05;2.15;;;0.90;;
35324;SDS011;35135;47.510;19.036;2024-02-04T03:29:31;0.80;;;0.68;;
35324;SDS011;35135;47.510;19.036;2024-02-04T03:31:57;1.00;;;0.60;;
35324;SDS011;35135;47.510;19.036;2024-02-04T03:34:22;0.70;;;0.70;;
35324;SDS011;35135;47.510;19.036;2024-02-04T03:36:48;0.60;;;0.60;;
35324;SDS011;35135;47.510;19.036;2024-02-04T03:39:14;0.60;;;0.60;;
35324;SDS011;35135;47.510;19.036;2024-02-04T03:41:39;0.52;;;0.52;;
35324;SDS011;35135;47.510;19.036;2024-02-04T03:44:05;1.30;;;0.70;;
35324;SDS011;35135;47.510;19.036;2024-02-04T03:46:31;0.60;;;0.60;;
35324;SDS011;35135;47.510;19.036;2024-02-04T03:48:56;0.80;;;0.52;;
35324;SDS011;35135;47.510;19.036;2024-02-04T03:51:22;0.80;;;0.63;;
35324;SDS011;35135;47.510;19.036;2024-02-04T03:53:48;0.93;;;0.55;;
35324;SDS011;35135;47.510;19.036;2024-02-04T03:56:15;0.70;;;0.52;;
35324;SDS011;35135;47.510;19.036;2024-02-04T03:58:41;1.13;;;0.60;;
35324;SDS011;35135;47.510;19.036;2024-02-04T04:01:09;0.70;;;0.60;;
35324;SDS011;35135;47.510;19.036;2024-02-04T04:03:38;0.75;;;0.70;;
35324;SDS011;35135;47.510;19.036;2024-02-04T04:06:08;0.50;;;0.50;;
35324;SDS011;35135;47.510;19.036;2024-02-04T04:08:34;1.05;;;0.65;;
35324;SDS011;35135;47.510;19.036;2024-02-04T04:11:00;0.68;;;0.50;;
35324;SDS011;35135;47.510;19.036;2024-02-04T04:13:26;0.75;;;0.50;;
35324;SDS011;35135;47.510;19.036;2024-02-04T04:15:51;0.88;;;0.60;;
35324;SDS011;35135;47.510;19.036;2024-02-04T04:18:17;0.70;;;0.60;;
35324;SDS011;35135;47.510;19.036;2024-02-04T04:20:43;1.05;;;0.57;;
35324;SDS011;35135;47.510;19.036;2024-02-04T04:23:08;1.00;;;0.60;;
35324;SDS011;35135;47.510;19.036;2024-02-04T04:25:34;0.90;;;0.70;;
35324;SDS011;35135;47.510;19.036;2024-02-04T04:28:00;0.88;;;0.50;;
35324;SDS011;35135;47.510;19.036;2024-02-04T04:30:25;0.90;;;0.50;;
35324;SDS011;35135;47.510;19.036;2024-02-04T04:32:51;0.40;;;0.40;;
35324;SDS011;35135;47.510;19.036;2024-02-04T04:35:17;1.85;;;0.60;;
35324;SDS011;35135;47.510;19.036;2024-02-04T04:37:42;0.80;;;0.60;;
35324;SDS011;35135;47.510;19.036;2024-02-04T04:40:08;0.93;;;0.52;;
35324;SDS011;35135;47.510;19.036;2024-02-04T04:42:35;0.40;;;0.38;;
35324;SDS011;35135;47.510;19.036;2024-02-04T04:45:00;1.17;;;0.50;;
35324;SDS011;35135;47.510;19.036;2024-02-04T04:47:26;0.73;;;0.50;;
35324;SDS011;35135;47.510;19.036;2024-02-04T04:49:52;0.50;;;0.45;;
35324;SDS011;35135;47.510;19.036;2024-02-04T04:52:17;1.25;;;0.40;;
35324;SDS011;35135;47.510;19.036;2024-02-04T04:54:43;1.10;;;0.60;;
35324;SDS011;35135;47.510;19.036;2024-02-04T04:57:09;0.40;;;0.40;;
35324;SDS011;35135;47.510;19.036;2024-02-04T04:59:34;0.50;;;0.50;;
35324;SDS011;35135;47.510;19.036;2024-02-04T05:02:03;0.70;;;0.40;;
35324;SDS011;35135;47.510;19.036;2024-02-04T05:04:29;0.40;;;0.40;;
35324;SDS011;35135;47.510;19.036;2024-02-04T05:06:55;0.50;;;0.40;;
35324;SDS011;35135;47.510;19.036;2024-02-04T05:09:21;0.50;;;0.50;;
35324;SDS011;35135;47.510;19.036;2024-02-04T05:11:47;0.73;;;0.50;;
35324;SDS011;35135;47.510;19.036;2024-02-04T05:14:13;0.55;;;0.40;;
35324;SDS011;35135;47.510;19.036;2024-02-04T05:16:38;0.40;;;0.40;;
35324;SDS011;35135;47.510;19.036;2024-02-04T05:19:04;0.55;;;0.50;;
35324;SDS011;35135;47.510;19.036;2024-02-04T05:21:30;0.80;;;0.40;;
35324;SDS011;35135;47.510;19.036;2024-02-04T05:23:55;0.45;;;0.40;;
35324;SDS011;35135;47.510;19.036;2024-02-04T05:26:21;0.60;;;0.60;;
35324;SDS011;35135;47.510;19.036;2024-02-04T05:28:47;1.65;;;0.40;;
35324;SDS011;35135;47.510;19.036;2024-02-04T05:31:12;0.50;;;0.40;;
35324;SDS011;35135;47.510;19.036;2024-02-04T05:33:38;0.57;;;0.50;;
35324;SDS011;35135;47.510;19.036;2024-02-04T05:36:04;0.47;;;0.40;;
35324;SDS011;35135;47.510;19.036;2024-02-04T05:38:30;0.57;;;0.30;;
35324;SDS011;35135;47.510;19.036;2024-02-04T05:40:56;0.40;;;0.40;;
35324;SDS011;35135;47.510;19.036;2024-02-04T05:43:21;0.70;;;0.50;;
35324;SDS011;35135;47.510;19.036;2024-02-04T05:45:47;0.40;;;0.40;;
35324;SDS011;35135;47.510;19.036;2024-02-04T05:48:13;0.60;;;0.47;;
35324;SDS011;35135;47.510;19.036;2024-02-04T05:50:39;0.65;;;0.50;;
35324;SDS011;35135;47.510;19.036;2024-02-04T05:53:04;0.32;;;0.32;;
35324;SDS011;35135;47.510;19.036;2024-02-04T05:55:30;0.70;;;0.60;;
35324;SDS011;35135;47.510;19.036;2024-02-04T05:57:56;0.30;;;0.30;;
35324;SDS011;35135;47.510;19.036;2024-02-04T06:00:22;0.60;;;0.40;;
35324;SDS011;35135;47.510;19.036;2024-02-04T06:02:48;0.80;;;0.60;;
35324;SDS011;35135;47.510;19.036;2024-02-04T06:05:14;2.17;;;0.57;;
35324;SDS011;35135;47.510;19.036;2024-02-04T06:07:42;0.60;;;0.40;;
35324;SDS011;35135;47.510;19.036;2024-02-04T06:10:10;0.47;;;0.40;;
35324;SDS011;35135;47.510;19.036;2024-02-04T06:12:37;0.73;;;0.60;;
35324;SDS011;35135;47.510;19.036;2024-02-04T06:15:05;0.57;;;0.50;;
35324;SDS011;35135;47.510;19.036;2024-02-04T06:17:36;0.60;;;0.50;;
35324;SDS011;35135;47.510;19.036;2024-02-04T06:20:02;1.02;;;0.50;;
35324;SDS011;35135;47.510;19.036;2024-02-04T06:22:28;0.35;;;0.35;;
35324;SDS011;35135;47.510;19.036;2024-02-04T06:24:54;0.50;;;0.50;;
35324;SDS011;35135;47.510;19.036;2024-02-04T06:27:20;8.68;;;0.75;;
35324;SDS011;35135;47.510;19.036;2024-02-04T06:29:45;0.40;;;0.40;;
35324;SDS011;35135;47.510;19.036;2024-02-04T06:32:11;0.43;;;0.32;;
35324;SDS011;35135;47.510;19.036;2024-02-04T06:34:38;0.47;;;0.30;;
35324;SDS011;35135;47.510;19.036;2024-02-04T06:37:04;0.50;;;0.40;;
35324;SDS011;35135;47.510;19.036;2024-02-04T06:39:29;0.43;;;0.30;;
35324;SDS011;35135;47.510;19.036;2024-02-04T06:41:55;0.30;;;0.30;;
35324;SDS011;35135;47.510;19.036;2024-02-04T06:44:21;0.50;;;0.40;;
35324;SDS011;35135;47.510;19.036;2024-02-04T06:46:46;0.50;;;0.30;;
35324;SDS011;35135;47.510;19.036;2024-02-04T06:49:13;0.90;;;0.40;;
35324;SDS011;35135;47.510;19.036;2024-02-04T06:51:43;0.50;;;0.40;;
35324;SDS011;35135;47.510;19.036;2024-02-04T06:54:09;1.00;;;0.50;;
35324;SDS011;35135;47.510;19.036;2024-02-04T06:56:35;0.43;;;0.43;;
35324;SDS011;35135;47.510;19.036;2024-02-04T06:59:02;0.38;;;0.38;;
35324;SDS011;35135;47.510;19.036;2024-02-04T07:01:27;0.43;;;0.35;;
35324;SDS011;35135;47.510;19.036;2024-02-04T07:03:53;1.05;;;0.55;;
35324;SDS011;35135;47.510;19.036;2024-02-04T07:06:19;0.70;;;0.40;;
35324;SDS011;35135;47.510;19.036;2024-02-04T07:08:45;1.52;;;0.40;;
35324;SDS011;35135;47.510;19.036;2024-02-04T07:11:11;0.40;;;0.40;;
35324;SDS011;35135;47.510;19.036;2024-02-04T07:13:36;0.65;;;0.50;;
35324;SDS011;35135;47.510;19.036;2024-02-04T07:16:02;0.28;;;0.28;;
35324;SDS011;35135;47.510;19.036;2024-02-04T07:18:28;0.60;;;0.43;;
35324;SDS011;35135;47.510;19.036;2024-02-04T07:20:54;0.50;;;0.40;;
35324;SDS011;35135;47.510;19.036;2024-02-04T07:23:19;1.48;;;0.40;;
35324;SDS011;35135;47.510;19.036;2024-02-04T07:25:46;0.30;;;0.30;;
35324;SDS011;35135;47.510;19.036;2024-02-04T07:28:12;2.38;;;0.50;;
35324;SDS011;35135;47.510;19.036;2024-02-04T07:30:37;0.90;;;0.40;;
35324;SDS011;35135;47.510;19.036;2024-02-04T07:33:03;0.60;;;0.52;;
35324;SDS011;35135;47.510;19.036;2024-02-04T07:35:29;2.38;;;0.52;;
35324;SDS011;35135;47.510;19.036;2024-02-04T07:37:55;0.38;;;0.38;;
35324;SDS011;35135;47.510;19.036;2024-02-04T07:40:20;1.58;;;0.40;;
35324;SDS011;35135;47.510;19.036;2024-02-04T07:42:46;0.60;;;0.43;;
35324;SDS011;35135;47.510;19.036;2024-02-04T07:45:12;1.15;;;0.50;;
35324;SDS011;35135;47.510;19.036;2024-02-04T07:47:37;1.42;;;0.30;;
35324;SDS011;35135;47.510;19.036;2024-02-04T07:50:03;0.40;;;0.40;;
35324;SDS011;35135;47.510;19.036;2024-02-04T07:52:30;0.40;;;0.40;;
35324;SDS011;35135;47.510;19.036;2024-02-04T07:54:55;0.40;;;0.40;;
35324;SDS011;35135;47.510;19.036;2024-02-04T07:57:21;0.40;;;0.35;;
35324;SDS011;35135;47.510;19.036;2024-02-04T07:59:46;1.42;;;0.30;;
35324;SDS011;35135;47.510;19.036;2024-02-04T08:02:12;0.40;;;0.40;;
35324;SDS011;35135;47.510;19.036;2024-02-04T08:04:41;1.23;;;0.40;;
35324;SDS011;35135;47.510;19.036;2024-02-04T08:07:06;0.77;;;0.40;;
35324;SDS011;35135;47.510;19.036;2024-02-04T08:09:32;0.45;;;0.35;;
35324;SDS011;35135;47.510;19.036;2024-02-04T08:11:58;0.20;;;0.20;;
35324;SDS011;35135;47.510;19.036;2024-02-04T08:14:23;1.13;;;0.30;;
35324;SDS011;35135;47.510;19.036;2024-02-04T08:16:49;0.38;;;0.32;;
35324;SDS011;35135;47.510;19.036;2024-02-04T08:19:15;1.02;;;0.50;;
35324;SDS011;35135;47.510;19.036;2024-02-04T08:21:40;0.60;;;0.30;;
35324;SDS011;35135;47.510;19.036;2024-02-04T08:24:06;0.60;;;0.40;;
35324;SDS011;35135;47.510;19.036;2024-02-04T08:26:32;0.40;;;0.32;;
35324;SDS011;35135;47.510;19.036;2024-02-04T08:28:58;0.93;;;0.30;;
35324;SDS011;35135;47.510;19.036;2024-02-04T08:31:24;0.60;;;0.43;;
35324;SDS011;35135;47.510;19.036;2024-02-04T08:33:50;0.35;;;0.30;;
35324;SDS011;35135;47.510;19.036;2024-02-04T08:36:17;1.33;;;0.30;;
35324;SDS011;35135;47.510;19.036;2024-02-04T08:38:43;0.85;;;0.30;;
35324;SDS011;35135;47.510;19.036;2024-02-04T08:41:09;0.43;;;0.30;;
35324;SDS011;35135;47.510;19.036;2024-02-04T08:43:34;1.08;;;0.30;;
35324;SDS011;35135;47.510;19.036;2024-02-04T08:46:00;0.65;;;0.50;;
35324;SDS011;35135;47.510;19.036;2024-02-04T08:48:26;2.15;;;0.77;;
35324;SDS011;35135;47.510;19.036;2024-02-04T08:50:51;5.13;;;0.50;;
35324;SDS011;35135;47.510;19.036;2024-02-04T08:53:19;1.50;;;0.43;;
35324;SDS011;35135;47.510;19.036;2024-02-04T08:55:46;0.80;;;0.43;;
35324;SDS011;35135;47.510;19.036;2024-02-04T08:58:11;2.35;;;0.50;;
35324;SDS011;35135;47.510;19.036;2024-02-04T09:00:37;2.50;;;0.57;;
35324;SDS011;35135;47.510;19.036;2024-02-04T09:03:03;1.55;;;0.57;;
35324;SDS011;35135;47.510;19.036;2024-02-04T09:05:29;3.97;;;0.93;;
35324;SDS011;35135;47.510;19.036;2024-02-04T09:07:55;3.42;;;1.20;;
35324;SDS011;35135;47.510;19.036;2024-02-04T09:10:21;8.98;;;1.30;;
35324;SDS011;35135;47.510;19.036;2024-02-04T09:12:47;3.88;;;1.23;;
35324;SDS011;35135;47.510;19.036;2024-02-04T09:15:12;3.65;;;1.10;;
35324;SDS011;35135;47.510;19.036;2024-02-04T09:17:38;3.38;;;1.35;;
35324;SDS011;35135;47.510;19.036;2024-02-04T09:20:05;3.90;;;1.20;;
35324;SDS011;35135;47.510;19.036;2024-02-04T09:22:32;5.18;;;1.35;;
35324;SDS011;35135;47.510;19.036;2024-02-04T09:24:58;2.92;;;1.00;;
35324;SDS011;35135;47.510;19.036;2024-02-04T09:27:24;6.97;;;1.10;;
35324;SDS011;35135;47.510;19.036;2024-02-04T09:29:50;2.92;;;1.13;;
35324;SDS011;35135;47.510;19.036;2024-02-04T09:32:16;2.10;;;0.88;;
35324;SDS011;35135;47.510;19.036;2024-02-04T09:34:42;1.80;;;0.80;;
35324;SDS011;35135;47.510;19.036;2024-02-04T09:37:08;2.92;;;1.00;;
35324;SDS011;35135;47.510;19.036;2024-02-04T09:39:34;3.15;;;0.90;;
35324;SDS011;35135;47.510;19.036;2024-02-04T09:42:00;6.25;;;1.40;;
35324;SDS011;35135;47.510;19.036;2024-02-04T09:44:26;6.03;;;1.40;;
35324;SDS011;35135;47.510;19.036;2024-02-04T09:46:53;11.57;;;1.40;;
35324;SDS011;35135;47.510;19.036;2024-02-04T09:49:19;9.60;;;1.58;;
35324;SDS011;35135;47.510;19.036;2024-02-04T09:51:46;8.10;;;1.23;;
35324;SDS011;35135;47.510;19.036;2024-02-04T09:54:13;8.20;;;1.35;;
35324;SDS011;35135;47.510;19.036;2024-02-04T09:56:41;5.03;;;1.45;;
35324;SDS011;35135;47.510;19.036;2024-02-04T09:59:07;3.13;;;0.80;;
35324;SDS011;35135;47.510;19.036;2024-02-04T10:01:33;2.60;;;1.35;;
35324;SDS011;35135;47.510;19.036;2024-02-04T10:04:00;7.88;;;1.30;;
35324;SDS011;35135;47.510;19.036;2024-02-04T10:06:26;3.50;;;1.10;;
35324;SDS011;35135;47.510;19.036;2024-02-04T10:08:52;10.02;;;1.50;;
35324;SDS011;35135;47.510;19.036;2024-02-04T10:11:18;17.60;;;2.67;;
35324;SDS011;35135;47.510;19.036;2024-02-04T10:13:47;23.75;;;3.50;;
35324;SDS011;35135;47.510;19.036;2024-02-04T10:16:17;16.75;;;2.47;;
35324;SDS011;35135;47.510;19.036;2024-02-04T10:18:44;13.90;;;2.05;;
35324;SDS011;35135;47.510;19.036;2024-02-04T10:21:20;117.70;;;12.40;;
35324;SDS011;35135;47.510;19.036;2024-02-04T10:23:48;39.38;;;4.10;;
35324;SDS011;35135;47.510;19.036;2024-02-04T10:26:14;33.08;;;4.40;;
35324;SDS011;35135;47.510;19.036;2024-02-04T10:28:40;36.35;;;3.53;;
35324;SDS011;35135;47.510;19.036;2024-02-04T10:31:09;36.15;;;4.05;;
35324;SDS011;35135;47.510;19.036;2024-02-04T10:33:35;18.05;;;2.55;;
35324;SDS011;35135;47.510;19.036;2024-02-04T10:36:01;26.85;;;2.72;;
35324;SDS011;35135;47.510;19.036;2024-02-04T10:38:27;22.55;;;3.05;;
35324;SDS011;35135;47.510;19.036;2024-02-04T10:40:53;21.40;;;2.92;;
35324;SDS011;35135;47.510;19.036;2024-02-04T10:43:22;16.52;;;2.88;;
35324;SDS011;35135;47.510;19.036;2024-02-04T10:45:49;9.50;;;2.15;;
35324;SDS011;35135;47.510;19.036;2024-02-04T10:48:19;10.68;;;2.25;;
35324;SDS011;35135;47.510;19.036;2024-02-04T10:50:47;13.68;;;2.20;;
35324;SDS011;35135;47.510;19.036;2024-02-04T10:53:16;7.95;;;1.90;;
35324;SDS011;35135;47.510;19.036;2024-02-04T10:58:12;13.40;;;2.00;;
35324;SDS011;35135;47.510;19.036;2024-02-04T11:00:41;8.82;;;1.70;;
35324;SDS011;35135;47.510;19.036;2024-02-04T11:03:08;8.50;;;1.58;;
35324;SDS011;35135;47.510;19.036;2024-02-04T11:05:36;8.55;;;1.95;;
35324;SDS011;35135;47.510;19.036;2024-02-04T11:08:02;10.40;;;3.53;;
35324;SDS011;35135;47.510;19.036;2024-02-04T11:10:29;13.38;;;5.03;;
35324;SDS011;35135;47.510;19.036;2024-02-04T11:12:57;14.50;;;4.82;;
35324;SDS011;35135;47.510;19.036;2024-02-04T11:15:24;17.90;;;5.28;;
35324;SDS011;35135;47.510;19.036;2024-02-04T11:26:45;13.82;;;6.10;;
35324;SDS011;35135;47.510;19.036;2024-02-04T11:29:11;15.73;;;6.63;;
35324;SDS011;35135;47.510;19.036;2024-02-04T11:31:39;14.45;;;6.60;;
35324;SDS011;35135;47.510;19.036;2024-02-04T11:34:05;12.88;;;6.10;;
35324;SDS011;35135;47.510;19.036;2024-02-04T11:36:37;18.92;;;7.82;;
35324;SDS011;35135;47.510;19.036;2024-02-04T11:39:11;12.60;;;6.10;;
35324;SDS011;35135;47.510;19.036;2024-02-04T11:41:46;12.45;;;7.25;;
35324;SDS011;35135;47.510;19.036;2024-02-04T11:44:19;22.38;;;7.07;;
35324;SDS011;35135;47.510;19.036;2024-02-04T11:46:49;14.27;;;6.45;;
35324;SDS011;35135;47.510;19.036;2024-02-04T11:49:24;16.05;;;6.22;;
35324;SDS011;35135;47.510;19.036;2024-02-04T11:51:50;13.30;;;6.25;;
35324;SDS011;35135;47.510;19.036;2024-02-04T11:54:17;15.98;;;5.82;;
35324;SDS011;35135;47.510;19.036;2024-02-04T11:56:50;15.90;;;6.25;;
35324;SDS011;35135;47.510;19.036;2024-02-04T11:59:22;14.23;;;6.15;;
35324;SDS011;35135;47.510;19.036;2024-02-04T12:01:53;18.73;;;6.90;;
35324;SDS011;35135;47.510;19.036;2024-02-04T12:04:22;14.10;;;6.15;;
35324;SDS011;35135;47.510;19.036;2024-02-04T12:06:48;21.15;;;7.43;;
35324;SDS011;35135;47.510;19.036;2024-02-04T12:09:18;21.85;;;7.28;;
35324;SDS011;35135;47.510;19.036;2024-02-04T12:11:44;22.75;;;7.65;;
35324;SDS011;35135;47.510;19.036;2024-02-04T12:14:10;24.50;;;7.60;;
35324;SDS011;35135;47.510;19.036;2024-02-04T12:16:36;20.98;;;7.35;;
35324;SDS011;35135;47.510;19.036;2024-02-04T12:19:02;24.08;;;7.28;;
35324;SDS011;35135;47.510;19.036;2024-02-04T12:21:29;20.40;;;6.88;;
35324;SDS011;35135;47.510;19.036;2024-02-04T12:23:55;18.02;;;6.07;;
35324;SDS011;35135;47.510;19.036;2024-02-04T12:26:22;19.58;;;5.95;;
35324;SDS011;35135;47.510;19.036;2024-02-04T12:28:48;20.52;;;6.82;;
35324;SDS011;35135;47.510;19.036;2024-02-04T12:31:18;14.93;;;5.18;;
35324;SDS011;35135;47.510;19.036;2024-02-04T12:34:00;15.27;;;4.65;;
35324;SDS011;35135;47.510;19.036;2024-02-04T12:36:26;20.95;;;3.58;;
35324;SDS011;35135;47.510;19.036;2024-02-04T12:38:53;13.20;;;3.03;;
35324;SDS011;35135;47.510;19.036;2024-02-04T12:41:20;5.72;;;1.55;;
35324;SDS011;35135;47.510;19.036;2024-02-04T12:43:50;5.78;;;1.38;;
35324;SDS011;35135;47.510;19.036;2024-02-04T12:46:17;4.97;;;1.23;;
35324;SDS011;35135;47.510;19.036;2024-02-04T12:48:53;3.58;;;1.33;;
35324;SDS011;35135;47.510;19.036;2024-02-04T12:51:23;3.83;;;0.80;;
35324;SDS011;35135;47.510;19.036;2024-02-04T12:54:05;2.58;;;0.80;;
35324;SDS011;35135;47.510;19.036;2024-02-04T12:56:49;6.55;;;1.17;;
35324;SDS011;35135;47.510;19.036;2024-02-04T13:04:23;17.80;;;2.13;;
35324;SDS011;35135;47.510;19.036;2024-02-04T13:06:50;20.80;;;2.72;;
35324;SDS011;35135;47.510;19.036;2024-02-04T13:09:16;14.75;;;2.88;;
35324;SDS011;35135;47.510;19.036;2024-02-04T13:11:42;26.17;;;3.42;;
35324;SDS011;35135;47.510;19.036;2024-02-04T13:14:08;39.33;;;4.38;;
35324;SDS011;35135;47.510;19.036;2024-02-04T13:16:34;23.00;;;3.25;;
35324;SDS011;35135;47.510;19.036;2024-02-04T13:19:03;30.70;;;3.05;;
35324;SDS011;35135;47.510;19.036;2024-02-04T13:21:30;23.75;;;3.35;;
35324;SDS011;35135;47.510;19.036;2024-02-04T13:23:56;21.15;;;2.72;;
35324;SDS011;35135;47.510;19.036;2024-02-04T13:26:22;23.85;;;2.97;;
35324;SDS011;35135;47.510;19.036;2024-02-04T13:28:48;24.05;;;3.28;;
35324;SDS011;35135;47.510;19.036;2024-02-04T13:31:14;11.48;;;2.55;;
35324;SDS011;35135;47.510;19.036;2024-02-04T13:33:40;18.73;;;2.65;;
35324;SDS011;35135;47.510;19.036;2024-02-04T13:36:09;19.42;;;2.45;;
35324;SDS011;35135;47.510;19.036;2024-02-04T13:38:35;20.13;;;2.22;;
35324;SDS011;35135;47.510;19.036;2024-02-04T13:41:02;13.30;;;2.20;;
35324;SDS011;35135;47.510;19.036;2024-02-04T13:43:31;13.43;;;2.00;;
35324;SDS011;35135;47.510;19.036;2024-02-04T13:45:57;11.23;;;1.90;;
35324;SDS011;35135;47.510;19.036;2024-02-04T13:48:24;5.50;;;1.60;;
35324;SDS011;35135;47.510;19.036;2024-02-04T13:50:51;14.82;;;1.50;;
35324;SDS011;35135;47.510;19.036;2024-02-04T13:53:16;4.50;;;1.23;;
35324;SDS011;35135;47.510;19.036;2024-02-04T13:55:42;4.93;;;1.13;;
35324;SDS011;35135;47.510;19.036;2024-02-04T13:58:10;3.10;;;1.10;;
35324;SDS011;35135;47.510;19.036;2024-02-04T14:00:36;5.68;;;0.85;;
35324;SDS011;35135;47.510;19.036;2024-02-04T14:03:02;2.20;;;0.85;;
35324;SDS011;35135;47.510;19.036;2024-02-04T14:05:28;3.72;;;1.40;;
35324;SDS011;35135;47.510;19.036;2024-02-04T14:07:53;6.72;;;1.20;;
35324;SDS011;35135;47.510;19.036;2024-02-04T14:10:19;2.35;;;1.00;;
35324;SDS011;35135;47.510;19.036;2024-02-04T14:12:45;4.90;;;1.33;;
35324;SDS011;35135;47.510;19.036;2024-02-04T14:15:11;2.08;;;1.10;;
35324;SDS011;35135;47.510;19.036;2024-02-04T14:17:37;4.10;;;0.90;;
35324;SDS011;35135;47.510;19.036;2024-02-04T14:20:04;4.70;;;1.40;;
35324;SDS011;35135;47.510;19.036;2024-02-04T14:22:31;3.10;;;1.02;;
35324;SDS011;35135;47.510;19.036;2024-02-04T14:24:57;3.55;;;1.38;;
35324;SDS011;35135;47.510;19.036;2024-02-04T14:27:23;3.15;;;1.00;;
35324;SDS011;35135;47.510;19.036;2024-02-04T14:29:48;2.80;;;1.05;;
35324;SDS011;35135;47.510;19.036;2024-02-04T14:32:14;4.63;;;1.63;;
35324;SDS011;35135;47.510;19.036;2024-02-04T14:34:41;2.83;;;0.98;;
35324;SDS011;35135;47.510;19.036;2024-02-04T14:37:07;4.88;;;1.30;;
35324;SDS011;35135;47.510;19.036;2024-02-04T14:39:33;2.35;;;1.05;;
35324;SDS011;35135;47.510;19.036;2024-02-04T14:41:59;3.33;;;1.10;;
35324;SDS011;35135;47.510;19.036;2024-02-04T14:44:25;3.20;;;0.93;;